createdAt,value
2023-05-22T00:00:05.868Z,425.00
2023-05-22T00:01:05.918Z,426.00
2023-05-22T00:02:05.993Z,427.00
2023-05-22T00:03:06.031Z,428.00
2023-05-22T00:04:06.073Z,429.00
2023-05-22T00:05:06.152Z,427.00
2023-05-22T00:06:06.196Z,427.00
2023-05-22T00:07:06.208Z,425.00
2023-05-22T00:08:06.245Z,428.00
2023-05-22T00:09:06.359Z,430.00
2023-05-22T00:10:06.360Z,428.00
2023-05-22T00:11:06.436Z,426.00
2023-05-22T00:12:06.421Z,425.00
2023-05-22T00:13:06.479Z,427.00
2023-05-22T00:14:06.507Z,426.00
2023-05-22T00:15:06.573Z,425.00
2023-05-22T00:16:06.622Z,423.00
2023-05-22T00:17:06.813Z,422.00
2023-05-22T00:18:06.780Z,421.00
2023-05-22T00:19:06.776Z,424.00
2023-05-22T00:20:06.805Z,427.00
2023-05-22T00:21:06.844Z,426.00
2023-05-22T00:22:06.892Z,424.00
2023-05-22T00:23:06.941Z,426.00
2023-05-22T00:24:06.998Z,428.00
2023-05-22T00:25:07.066Z,431.00
2023-05-22T00:26:07.086Z,431.00
2023-05-22T00:27:07.145Z,432.00
2023-05-22T00:28:07.193Z,432.00
2023-05-22T00:29:07.241Z,430.00
2023-05-22T00:30:07.290Z,433.00
2023-05-22T00:31:07.337Z,437.00
2023-05-22T00:32:07.391Z,435.00
2023-05-22T00:33:07.456Z,431.00
2023-05-22T00:34:07.555Z,430.00
2023-05-22T00:35:07.536Z,432.00
2023-05-22T00:36:07.588Z,432.00
2023-05-22T00:37:07.647Z,431.00
2023-05-22T00:38:07.696Z,432.00
2023-05-22T00:39:07.732Z,431.00
2023-05-22T00:40:07.796Z,431.00
2023-05-22T00:41:07.834Z,431.00
2023-05-22T00:42:07.885Z,431.00
2023-05-22T00:43:07.935Z,431.00
2023-05-22T00:44:08.062Z,431.00
2023-05-22T00:45:08.068Z,433.00
2023-05-22T00:46:08.151Z,434.00
2023-05-22T00:47:08.190Z,436.00
2023-05-22T00:48:08.265Z,435.00
2023-05-22T00:49:08.297Z,435.00
2023-05-22T00:50:08.321Z,433.00
2023-05-22T00:51:08.365Z,433.00
2023-05-22T00:52:08.434Z,432.00
2023-05-22T00:53:08.477Z,433.00
2023-05-22T00:54:08.541Z,432.00
2023-05-22T00:55:08.617Z,433.00
2023-05-22T00:56:08.635Z,435.00
2023-05-22T00:57:08.738Z,437.00
2023-05-22T00:58:08.728Z,437.00
2023-05-22T00:59:08.784Z,435.00
2023-05-22T01:00:08.847Z,436.00
2023-05-22T01:01:08.889Z,434.00
2023-05-22T01:02:09.046Z,433.00
2023-05-22T01:03:09.145Z,432.00
2023-05-22T01:04:09.204Z,430.00
2023-05-22T01:05:09.096Z,430.00
2023-05-22T01:06:09.155Z,430.00
2023-05-22T01:07:09.201Z,430.00
2023-05-22T01:08:09.315Z,432.00
2023-05-22T01:09:09.297Z,431.00
2023-05-22T01:10:09.338Z,431.00
2023-05-22T01:11:09.406Z,430.00
2023-05-22T01:12:09.460Z,429.00
2023-05-22T01:13:09.503Z,430.00
2023-05-22T01:14:09.536Z,430.00
2023-05-22T01:15:09.579Z,430.00
2023-05-22T01:16:09.750Z,433.00
2023-05-22T01:17:09.699Z,435.00
2023-05-22T01:18:09.812Z,435.00
2023-05-22T01:19:09.847Z,435.00
2023-05-22T01:20:09.827Z,437.00
2023-05-22T01:21:09.889Z,437.00
2023-05-22T01:22:09.935Z,437.00
2023-05-22T01:23:09.982Z,437.00
2023-05-22T01:24:10.020Z,439.00
2023-05-22T01:25:10.086Z,438.00
2023-05-22T01:26:10.146Z,439.00
2023-05-22T01:27:10.212Z,438.00
2023-05-22T01:28:10.259Z,436.00
2023-05-22T01:29:10.283Z,434.00
2023-05-22T01:30:10.343Z,434.00
2023-05-22T01:31:10.391Z,434.00
2023-05-22T01:32:10.476Z,435.00
2023-05-22T01:33:10.566Z,435.00
2023-05-22T01:34:10.560Z,437.00
2023-05-22T01:35:10.623Z,438.00
2023-05-22T01:36:10.655Z,435.00
2023-05-22T01:37:10.719Z,437.00
2023-05-22T01:38:10.769Z,438.00
2023-05-22T01:39:10.821Z,436.00
2023-05-22T01:40:10.867Z,439.00
2023-05-22T01:41:10.909Z,436.00
2023-05-22T01:42:10.968Z,433.00
2023-05-22T01:43:11.003Z,433.00
2023-05-22T01:44:11.056Z,436.00
2023-05-22T01:45:11.113Z,436.00
2023-05-22T01:46:11.180Z,436.00
2023-05-22T01:47:11.213Z,437.00
2023-05-22T01:48:11.271Z,437.00
2023-05-22T01:49:11.308Z,434.00
2023-05-22T01:50:11.371Z,434.00
2023-05-22T01:51:11.430Z,433.00
2023-05-22T01:52:11.527Z,433.00
2023-05-22T01:53:11.539Z,433.00
2023-05-22T01:54:11.565Z,434.00
2023-05-22T01:55:11.628Z,435.00
2023-05-22T01:56:11.697Z,436.00
2023-05-22T01:57:11.741Z,435.00
2023-05-22T01:58:11.778Z,436.00
2023-05-22T01:59:11.824Z,436.00
2023-05-22T02:00:11.885Z,438.00
2023-05-22T02:01:11.963Z,440.00
2023-05-22T02:02:12.034Z,438.00
2023-05-22T02:03:12.238Z,436.00
2023-05-22T02:04:12.072Z,436.00
2023-05-22T02:05:12.129Z,437.00
2023-05-22T02:06:12.188Z,438.00
2023-05-22T02:07:12.596Z,437.00
2023-05-22T02:08:12.294Z,437.00
2023-05-22T02:09:12.334Z,437.00
2023-05-22T02:10:12.418Z,434.00
2023-05-22T02:11:12.462Z,432.00
2023-05-22T02:12:12.543Z,430.00
2023-05-22T02:13:12.579Z,432.00
2023-05-22T02:14:12.644Z,435.00
2023-05-22T02:15:12.676Z,438.00
2023-05-22T02:16:12.775Z,440.00
2023-05-22T02:17:12.775Z,438.00
2023-05-22T02:18:12.990Z,439.00
2023-05-22T02:19:12.979Z,439.00
2023-05-22T02:20:12.958Z,437.00
2023-05-22T02:21:12.993Z,438.00
2023-05-22T02:22:13.084Z,438.00
2023-05-22T02:23:13.111Z,440.00
2023-05-22T02:24:13.156Z,438.00
2023-05-22T02:25:13.240Z,439.00
2023-05-22T02:26:13.270Z,439.00
2023-05-22T02:27:13.350Z,440.00
2023-05-22T02:28:13.397Z,439.00
2023-05-22T02:29:13.457Z,437.00
2023-05-22T02:30:13.519Z,438.00
2023-05-22T02:31:13.584Z,437.00
2023-05-22T02:32:13.633Z,437.00
2023-05-22T02:33:13.713Z,439.00
2023-05-22T02:34:13.761Z,442.00
2023-05-22T02:35:13.823Z,441.00
2023-05-22T02:36:13.878Z,439.00
2023-05-22T02:37:13.971Z,440.00
2023-05-22T02:38:14.016Z,442.00
2023-05-22T02:39:14.089Z,441.00
2023-05-22T02:40:14.152Z,441.00
2023-05-22T02:41:14.208Z,443.00
2023-05-22T02:42:14.316Z,443.00
2023-05-22T02:43:14.301Z,444.00
2023-05-22T02:44:14.356Z,445.00
2023-05-22T02:45:14.429Z,446.00
2023-05-22T02:46:14.560Z,447.00
2023-05-22T02:47:14.558Z,447.00
2023-05-22T02:48:14.627Z,448.00
2023-05-22T02:49:14.640Z,447.00
2023-05-22T02:50:14.681Z,447.00
2023-05-22T02:51:14.749Z,449.00
2023-05-22T02:52:14.850Z,449.00
2023-05-22T02:53:14.855Z,448.00
2023-05-22T02:54:14.916Z,447.00
2023-05-22T02:55:14.968Z,447.00
2023-05-22T02:56:15.041Z,448.00
2023-05-22T02:57:15.130Z,446.00
2023-05-22T02:58:15.134Z,444.00
2023-05-22T02:59:15.189Z,443.00
2023-05-22T03:00:15.255Z,445.00
2023-05-22T03:01:15.345Z,443.00
2023-05-22T03:02:15.419Z,442.00
2023-05-22T03:03:15.438Z,442.00
2023-05-22T03:04:15.477Z,441.00
2023-05-22T03:05:15.540Z,444.00
2023-05-22T03:06:15.592Z,445.00
2023-05-22T03:07:15.699Z,444.00
2023-05-22T03:08:15.711Z,447.00
2023-05-22T03:09:15.766Z,448.00
2023-05-22T03:10:15.824Z,449.00
2023-05-22T03:11:15.877Z,451.00
2023-05-22T03:12:15.957Z,448.00
2023-05-22T03:13:15.992Z,448.00
2023-05-22T03:14:16.036Z,447.00
2023-05-22T03:15:16.112Z,448.00
2023-05-22T03:16:16.165Z,447.00
2023-05-22T03:17:16.241Z,447.00
2023-05-22T03:18:16.279Z,449.00
2023-05-22T03:19:16.425Z,448.00
2023-05-22T03:20:16.414Z,450.00
2023-05-22T03:21:16.467Z,451.00
2023-05-22T03:22:16.572Z,450.00
2023-05-22T03:23:16.581Z,447.00
2023-05-22T03:24:16.645Z,447.00
2023-05-22T03:25:16.698Z,449.00
2023-05-22T03:26:16.761Z,449.00
2023-05-22T03:27:16.853Z,449.00
2023-05-22T03:28:16.917Z,449.00
2023-05-22T03:29:16.999Z,450.00
2023-05-22T03:30:17.035Z,452.00
2023-05-22T03:31:17.075Z,453.00
2023-05-22T03:32:17.173Z,452.00
2023-05-22T03:33:17.250Z,451.00
2023-05-22T03:34:17.274Z,453.00
2023-05-22T03:35:17.336Z,455.00
2023-05-22T03:36:17.393Z,456.00
2023-05-22T03:37:17.481Z,456.00
2023-05-22T03:38:17.658Z,456.00
2023-05-22T03:39:17.578Z,454.00
2023-05-22T03:40:17.631Z,453.00
2023-05-22T03:41:17.689Z,453.00
2023-05-22T03:42:17.751Z,456.00
2023-05-22T03:43:17.844Z,455.00
2023-05-22T03:44:17.903Z,454.00
2023-05-22T03:45:17.953Z,456.00
2023-05-22T03:46:18.066Z,458.00
2023-05-22T03:47:18.102Z,455.00
2023-05-22T03:48:18.129Z,454.00
2023-05-22T03:49:18.223Z,454.00
2023-05-22T03:50:18.274Z,457.00
2023-05-22T03:51:20.083Z,458.00
2023-05-22T03:52:18.371Z,456.00
2023-05-22T03:53:18.455Z,453.00
2023-05-22T03:54:18.511Z,455.00
2023-05-22T03:55:18.651Z,455.00
2023-05-22T03:56:18.629Z,454.00
2023-05-22T03:57:18.741Z,455.00
2023-05-22T03:58:18.765Z,456.00
2023-05-22T03:59:18.807Z,454.00
2023-05-22T04:00:18.877Z,453.00
2023-05-22T04:01:18.941Z,453.00
2023-05-22T04:02:19.069Z,454.00
2023-05-22T04:03:19.251Z,456.00
2023-05-22T04:04:19.125Z,454.00
2023-05-22T04:05:19.210Z,456.00
2023-05-22T04:06:19.257Z,458.00
2023-05-22T04:07:19.324Z,458.00
2023-05-22T04:08:19.358Z,457.00
2023-05-22T04:09:19.421Z,457.00
2023-05-22T04:10:19.510Z,455.00
2023-05-22T04:11:19.538Z,451.00
2023-05-22T04:12:19.663Z,450.00
2023-05-22T04:13:19.672Z,455.00
2023-05-22T04:14:19.736Z,454.00
2023-05-22T04:15:19.804Z,453.00
2023-05-22T04:16:19.909Z,454.00
2023-05-22T04:17:19.968Z,454.00
2023-05-22T04:18:19.989Z,455.00
2023-05-22T04:19:20.085Z,454.00
2023-05-22T04:20:20.107Z,453.00
2023-05-22T04:21:20.158Z,452.00
2023-05-22T04:22:20.234Z,455.00
2023-05-22T04:23:20.308Z,456.00
2023-05-22T04:24:20.335Z,456.00
2023-05-22T04:25:20.404Z,458.00
2023-05-22T04:26:20.472Z,456.00
2023-05-22T04:27:20.595Z,457.00
2023-05-22T04:28:20.566Z,456.00
2023-05-22T04:29:20.633Z,458.00
2023-05-22T04:30:20.715Z,459.00
2023-05-22T04:31:20.797Z,461.00
2023-05-22T04:32:20.822Z,462.00
2023-05-22T04:33:20.870Z,461.00
2023-05-22T04:34:20.938Z,462.00
2023-05-22T04:35:21.006Z,462.00
2023-05-22T04:36:21.062Z,460.00
2023-05-22T04:37:21.126Z,460.00
2023-05-22T04:38:21.182Z,458.00
2023-05-22T04:39:21.266Z,458.00
2023-05-22T04:40:21.318Z,457.00
2023-05-22T04:42:21.424Z,453.00
2023-05-22T04:43:21.465Z,452.00
2023-05-22T04:44:21.538Z,453.00
2023-05-22T04:45:21.587Z,453.00
2023-05-22T04:46:21.821Z,454.00
2023-05-22T04:47:21.709Z,454.00
2023-05-22T04:48:21.748Z,454.00
2023-05-22T04:49:21.812Z,455.00
2023-05-22T04:50:21.878Z,458.00
2023-05-22T04:51:21.924Z,459.00
2023-05-22T04:52:22.000Z,459.00
2023-05-22T04:53:22.041Z,464.00
2023-05-22T04:54:22.106Z,463.00
2023-05-22T04:55:22.188Z,463.00
2023-05-22T04:56:34.817Z,461.00
2023-05-22T04:57:23.221Z,461.00
2023-05-22T04:58:22.200Z,462.00
2023-05-22T04:59:22.307Z,461.00
2023-05-22T05:00:22.211Z,462.00
2023-05-22T05:01:22.222Z,461.00
2023-05-22T05:02:22.190Z,460.00
2023-05-22T05:03:22.233Z,461.00
2023-05-22T05:04:22.177Z,461.00
2023-05-22T05:05:22.163Z,456.00
2023-05-22T05:06:22.147Z,457.00
2023-05-22T05:07:22.708Z,458.00
2023-05-22T05:08:22.265Z,458.00
2023-05-22T05:09:22.304Z,457.00
2023-05-22T05:10:22.369Z,456.00
2023-05-22T05:11:22.444Z,456.00
2023-05-22T05:12:22.468Z,458.00
2023-05-22T05:13:22.536Z,459.00
2023-05-22T05:14:22.563Z,459.00
2023-05-22T05:15:22.618Z,461.00
2023-05-22T05:16:22.685Z,460.00
2023-05-22T05:17:23.277Z,460.00
2023-05-22T05:18:22.761Z,463.00
2023-05-22T05:19:22.829Z,462.00
2023-05-22T05:20:22.862Z,465.00
2023-05-22T05:21:22.931Z,467.00
2023-05-22T05:22:23.229Z,465.00
2023-05-22T05:23:23.004Z,466.00
2023-05-22T05:24:23.091Z,467.00
2023-05-22T05:25:23.152Z,466.00
2023-05-22T05:26:23.214Z,467.00
2023-05-22T05:27:23.234Z,468.00
2023-05-22T05:28:23.329Z,479.00
2023-05-22T05:29:23.339Z,485.00
2023-05-22T05:30:23.414Z,483.00
2023-05-22T05:31:23.477Z,486.00
2023-05-22T05:32:23.600Z,490.00
2023-05-22T05:33:23.567Z,491.00
2023-05-22T05:34:23.627Z,490.00
2023-05-22T05:35:23.708Z,491.00
2023-05-22T05:36:23.703Z,675.00
2023-05-22T05:37:23.782Z,661.00
2023-05-22T05:38:23.839Z,739.00
2023-05-22T05:39:23.873Z,748.00
2023-05-22T05:40:23.927Z,750.00
2023-05-22T05:41:23.935Z,779.00
2023-05-22T05:42:23.982Z,833.00
2023-05-22T05:43:23.991Z,855.00
2023-05-22T05:44:24.064Z,938.00
2023-05-22T05:45:24.071Z,985.00
2023-05-22T05:46:24.140Z,940.00
2023-05-22T05:47:24.322Z,944.00
2023-05-22T05:48:24.066Z,947.00
2023-05-22T05:49:24.152Z,948.00
2023-05-22T05:50:24.115Z,945.00
2023-05-22T05:51:24.120Z,937.00
2023-05-22T05:52:24.109Z,930.00
2023-05-22T05:53:24.111Z,932.00
2023-05-22T05:54:24.108Z,933.00
2023-05-22T05:55:24.175Z,933.00
2023-05-22T05:56:24.176Z,936.00
2023-05-22T05:57:24.210Z,936.00
2023-05-22T05:58:24.183Z,936.00
2023-05-22T05:59:24.207Z,935.00
2023-05-22T06:00:24.185Z,934.00
2023-05-22T06:01:24.275Z,933.00
2023-05-22T06:02:24.365Z,934.00
2023-05-22T06:03:24.404Z,935.00
2023-05-22T06:04:24.377Z,934.00
2023-05-22T06:05:24.336Z,932.00
2023-05-22T06:06:24.341Z,930.00
2023-05-22T06:07:24.355Z,925.00
2023-05-22T06:08:24.390Z,921.00
2023-05-22T06:09:24.402Z,916.00
2023-05-22T06:10:24.412Z,913.00
2023-05-22T06:11:24.453Z,906.00
2023-05-22T06:12:24.469Z,903.00
2023-05-22T06:13:24.522Z,904.00
2023-05-22T06:14:24.504Z,903.00
2023-05-22T06:15:24.566Z,904.00
2023-05-22T06:16:24.667Z,900.00
2023-05-22T06:17:24.651Z,898.00
2023-05-22T06:18:24.619Z,900.00
2023-05-22T06:19:24.721Z,900.00
2023-05-22T06:20:24.702Z,899.00
2023-05-22T06:21:24.717Z,896.00
2023-05-22T06:22:28.574Z,894.00
2023-05-22T06:23:24.734Z,894.00
2023-05-22T06:24:24.706Z,893.00
2023-05-22T06:25:24.716Z,893.00
2023-05-22T06:26:24.688Z,892.00
2023-05-22T06:27:24.720Z,888.00
2023-05-22T06:28:24.701Z,888.00
2023-05-22T06:29:24.686Z,888.00
2023-05-22T06:30:38.951Z,885.00
2023-05-22T06:31:25.680Z,884.00
2023-05-22T06:32:24.786Z,881.00
2023-05-22T06:33:24.748Z,878.00
2023-05-22T06:34:24.729Z,871.00
2023-05-22T06:35:24.796Z,867.00
2023-05-22T06:36:24.630Z,866.00
2023-05-22T06:37:24.611Z,963.00
2023-05-22T06:38:24.605Z,1048.00
2023-05-22T06:39:24.602Z,1034.00
2023-05-22T06:40:24.612Z,961.00
2023-05-22T06:41:24.624Z,851.00
2023-05-22T06:42:24.662Z,852.00
2023-05-22T06:43:24.637Z,872.00
2023-05-22T06:44:24.631Z,870.00
2023-05-22T06:45:24.585Z,774.00
2023-05-22T06:46:26.060Z,752.00
2023-05-22T06:47:24.917Z,737.00
2023-05-22T06:48:24.542Z,706.00
2023-05-22T06:49:24.552Z,703.00
2023-05-22T06:50:24.535Z,746.00
2023-05-22T06:51:24.576Z,786.00
2023-05-22T06:52:24.492Z,787.00
2023-05-22T06:53:24.485Z,794.00
2023-05-22T06:54:24.534Z,832.00
2023-05-22T06:55:24.609Z,857.00
2023-05-22T06:56:24.707Z,896.00
2023-05-22T06:57:24.719Z,914.00
2023-05-22T06:58:24.764Z,931.00
2023-05-22T06:59:24.815Z,992.00
2023-05-22T07:00:24.873Z,995.00
2023-05-22T07:01:25.016Z,1000.00
2023-05-22T07:02:24.964Z,1021.00
2023-05-22T07:03:24.987Z,1065.00
2023-05-22T07:04:25.001Z,1113.00
2023-05-22T07:05:25.104Z,1117.00
2023-05-22T07:06:25.060Z,1143.00
2023-05-22T07:07:25.095Z,1184.00
2023-05-22T07:08:25.102Z,1214.00
2023-05-22T07:09:25.164Z,1241.00
2023-05-22T07:10:25.128Z,1280.00
2023-05-22T07:11:25.140Z,1302.00
2023-05-22T07:12:25.279Z,1362.00
2023-05-22T07:13:25.231Z,1372.00
2023-05-22T07:14:25.215Z,1400.00
2023-05-22T07:15:25.207Z,1430.00
2023-05-22T07:16:25.279Z,1498.00
2023-05-22T07:17:25.296Z,1510.00
2023-05-22T07:18:25.256Z,1514.00
2023-05-22T07:19:26.290Z,1591.00
2023-05-22T07:20:25.262Z,1607.00
2023-05-22T07:21:25.331Z,1616.00
2023-05-22T07:22:25.769Z,1644.00
2023-05-22T07:23:26.484Z,1662.00
2023-05-22T07:24:25.327Z,1682.00
2023-05-22T07:25:25.281Z,1732.00
2023-05-22T07:26:25.270Z,1767.00
2023-05-22T07:27:25.301Z,1798.00
2023-05-22T07:28:25.278Z,1825.00
2023-05-22T07:29:25.311Z,1846.00
2023-05-22T07:30:25.363Z,1882.00
2023-05-22T07:31:25.386Z,1903.00
2023-05-22T07:32:25.445Z,1240.00
2023-05-22T07:33:25.797Z,1595.00
2023-05-22T07:34:25.579Z,1111.00
2023-05-22T07:35:25.426Z,1085.00
2023-05-22T07:36:25.389Z,1071.00
2023-05-22T07:37:25.411Z,929.00
2023-05-22T07:38:25.791Z,1100.00
2023-05-22T07:39:25.556Z,933.00
2023-05-22T07:40:36.183Z,986.00
2023-05-22T07:41:26.431Z,975.00
2023-05-22T07:42:25.784Z,893.00
2023-05-22T07:43:25.781Z,989.00
2023-05-22T07:44:25.406Z,869.00
2023-05-22T07:45:25.414Z,927.00
2023-05-22T07:46:25.483Z,1080.00
2023-05-22T07:47:25.431Z,1119.00
2023-05-22T07:48:25.410Z,1174.00
2023-05-22T07:49:25.360Z,1212.00
2023-05-22T07:50:25.432Z,1229.00
2023-05-22T07:51:25.346Z,1241.00
2023-05-22T07:52:25.337Z,1290.00
2023-05-22T07:53:25.334Z,1309.00
2023-05-22T07:54:25.374Z,1321.00
2023-05-22T07:55:25.336Z,1387.00
2023-05-22T07:56:25.309Z,1401.00
2023-05-22T07:57:25.305Z,1413.00
2023-05-22T07:58:25.286Z,1447.00
2023-05-22T07:59:25.299Z,1475.00
2023-05-22T08:00:25.346Z,1503.00
2023-05-22T08:01:25.267Z,1525.00
2023-05-22T08:02:25.367Z,1571.00
2023-05-22T08:03:25.387Z,1595.00
2023-05-22T08:04:25.359Z,1611.00
2023-05-22T08:05:25.273Z,1633.00
2023-05-22T08:06:25.279Z,1647.00
2023-05-22T08:07:25.234Z,1679.00
2023-05-22T08:08:25.332Z,1711.00
2023-05-22T08:09:25.374Z,1723.00
2023-05-22T08:10:26.554Z,1739.00
2023-05-22T08:11:25.531Z,1763.00
2023-05-22T08:12:25.413Z,1785.00
2023-05-22T08:13:25.402Z,1813.00
2023-05-22T08:14:25.414Z,1849.00
2023-05-22T08:15:25.429Z,1870.00
2023-05-22T08:16:25.432Z,1897.00
2023-05-22T08:17:25.485Z,1942.00
2023-05-22T08:18:25.422Z,1973.00
2023-05-22T08:19:25.451Z,1994.00
2023-05-22T08:20:25.477Z,2053.00
2023-05-22T08:21:25.371Z,2064.00
2023-05-22T08:22:25.361Z,2085.00
2023-05-22T08:23:25.376Z,2142.00
2023-05-22T08:24:25.360Z,2156.00
2023-05-22T08:25:25.338Z,2146.00
2023-05-22T08:26:25.515Z,2099.00
2023-05-22T08:27:25.438Z,2112.00
2023-05-22T08:28:25.839Z,2106.00
2023-05-22T08:29:25.317Z,2111.00
2023-05-22T08:30:25.308Z,2113.00
2023-05-22T08:31:25.299Z,2107.00
2023-05-22T08:32:25.419Z,2108.00
2023-05-22T08:33:25.307Z,2116.00
2023-05-22T08:34:25.339Z,2120.00
2023-05-22T08:35:25.251Z,2120.00
2023-05-22T08:36:25.256Z,2116.00
2023-05-22T08:37:25.257Z,2109.00
2023-05-22T08:38:25.324Z,2109.00
2023-05-22T08:39:25.279Z,2106.00
2023-05-22T08:40:25.267Z,2101.00
2023-05-22T08:41:25.233Z,2096.00
2023-05-22T08:42:25.318Z,2288.00
2023-05-22T08:43:25.237Z,2162.00
2023-05-22T08:44:25.263Z,2161.00
2023-05-22T08:45:25.229Z,2172.00
2023-05-22T08:46:25.207Z,2226.00
2023-05-22T08:47:25.225Z,2257.00
2023-05-22T08:48:25.299Z,2324.00
2023-05-22T08:49:25.298Z,2341.00
2023-05-22T08:50:25.175Z,2393.00
2023-05-22T08:51:25.159Z,2407.00
2023-05-22T08:52:25.144Z,2441.00
2023-05-22T08:53:25.171Z,2508.00
2023-05-22T08:54:25.308Z,2532.00
2023-05-22T08:55:25.177Z,2563.00
2023-05-22T08:56:26.768Z,2637.00
2023-05-22T08:57:25.124Z,2677.00
2023-05-22T08:58:25.108Z,2697.00
2023-05-22T08:59:25.417Z,2720.00
2023-05-22T09:00:25.094Z,2754.00
2023-05-22T09:01:25.128Z,2787.00
2023-05-22T09:02:25.111Z,2853.00
2023-05-22T09:03:25.182Z,2862.00
2023-05-22T09:04:25.086Z,2878.00
2023-05-22T09:05:25.063Z,2953.00
2023-05-22T09:06:25.074Z,2987.00
2023-05-22T09:07:25.047Z,3000.00
2023-05-22T09:08:25.056Z,3008.00
2023-05-22T09:09:25.046Z,3072.00
2023-05-22T09:10:25.053Z,3113.00
2023-05-22T09:11:25.057Z,3142.00
2023-05-22T09:12:25.012Z,3148.00
2023-05-22T09:13:25.020Z,3159.00
2023-05-22T09:14:25.042Z,3185.00
2023-05-22T09:15:25.275Z,3212.00
2023-05-22T09:16:25.138Z,3249.00
2023-05-22T09:17:25.024Z,3275.00
2023-05-22T09:18:25.014Z,3312.00
2023-05-22T09:19:25.017Z,3366.00
2023-05-22T09:20:24.995Z,3382.00
2023-05-22T09:21:30.202Z,3408.00
2023-05-22T09:22:25.967Z,3420.00
2023-05-22T09:23:24.967Z,3445.00
2023-05-22T09:24:24.952Z,3495.00
2023-05-22T09:25:24.952Z,3513.00
2023-05-22T09:26:25.005Z,3535.00
2023-05-22T09:27:24.931Z,3556.00
2023-05-22T09:28:24.950Z,3572.00
2023-05-22T09:29:24.909Z,3587.00
2023-05-22T09:30:24.903Z,3601.00
2023-05-22T09:31:25.001Z,3637.00
2023-05-22T09:32:24.937Z,3642.00
2023-05-22T09:33:25.376Z,3634.00
2023-05-22T09:34:24.896Z,3647.00
2023-05-22T09:35:24.878Z,3446.00
2023-05-22T09:36:24.866Z,3432.00
2023-05-22T09:37:24.865Z,3364.00
2023-05-22T09:38:25.328Z,3215.00
2023-05-22T09:39:24.874Z,3119.00
2023-05-22T09:40:24.875Z,3064.00
2023-05-22T09:41:24.937Z,2977.00
2023-05-22T09:42:24.965Z,2890.00
2023-05-22T09:43:25.334Z,2602.00
2023-05-22T09:44:25.020Z,2379.00
2023-05-22T09:45:25.034Z,2143.00
2023-05-22T09:46:25.105Z,1943.00
2023-05-22T09:47:25.121Z,1975.00
2023-05-22T09:48:25.358Z,2019.00
2023-05-22T09:49:25.175Z,1882.00
2023-05-22T09:50:25.176Z,1621.00
2023-05-22T09:51:25.233Z,1586.00
2023-05-22T09:52:25.274Z,1558.00
2023-05-22T09:53:25.361Z,1386.00
2023-05-22T09:54:25.323Z,1333.00
2023-05-22T09:55:25.370Z,1327.00
2023-05-22T09:56:37.826Z,1332.00
2023-05-22T09:57:26.462Z,1367.00
2023-05-22T09:58:25.413Z,1374.00
2023-05-22T09:59:25.423Z,1364.00
2023-05-22T10:00:25.387Z,1164.00
2023-05-22T10:01:25.396Z,1102.00
2023-05-22T10:02:25.412Z,1082.00
2023-05-22T10:03:25.441Z,1083.00
2023-05-22T10:04:25.473Z,1094.00
2023-05-22T10:05:25.437Z,1146.00
2023-05-22T10:06:25.536Z,1142.00
2023-05-22T10:07:25.580Z,1139.00
2023-05-22T10:08:25.606Z,1118.00
2023-05-22T10:09:25.688Z,1114.00
2023-05-22T10:10:25.742Z,1109.00
2023-05-22T10:11:25.789Z,1118.00
2023-05-22T10:12:25.857Z,1057.00
2023-05-22T10:13:25.915Z,1085.00
2023-05-22T10:14:26.010Z,1131.00
2023-05-22T10:15:26.028Z,1151.00
2023-05-22T10:16:26.260Z,1161.00
2023-05-22T10:17:26.174Z,1157.00
2023-05-22T10:18:26.261Z,1157.00
2023-05-22T10:19:26.383Z,1164.00
2023-05-22T10:20:26.334Z,1107.00
2023-05-22T10:21:26.429Z,1097.00
2023-05-22T10:22:26.445Z,1073.00
2023-05-22T10:23:26.506Z,1100.00
2023-05-22T10:24:26.847Z,982.00
2023-05-22T10:25:26.613Z,947.00
2023-05-22T10:26:26.671Z,818.00
2023-05-22T10:27:26.723Z,730.00
2023-05-22T10:28:26.788Z,709.00
2023-05-22T10:29:26.883Z,771.00
2023-05-22T10:30:26.972Z,767.00
2023-05-22T10:31:26.981Z,767.00
2023-05-22T10:32:27.110Z,764.00
2023-05-22T10:33:27.135Z,767.00
2023-05-22T10:34:27.358Z,774.00
2023-05-22T10:35:27.262Z,778.00
2023-05-22T10:36:27.199Z,780.00
2023-05-22T10:37:27.237Z,782.00
2023-05-22T10:38:27.245Z,779.00
2023-05-22T10:39:27.238Z,774.00
2023-05-22T10:40:27.258Z,773.00
2023-05-22T10:41:27.229Z,772.00
2023-05-22T10:42:27.224Z,773.00
2023-05-22T10:43:27.289Z,774.00
2023-05-22T10:44:27.225Z,773.00
2023-05-22T10:45:27.258Z,771.00
2023-05-22T10:46:27.323Z,768.00
2023-05-22T10:47:27.230Z,765.00
2023-05-22T10:48:27.230Z,765.00
2023-05-22T10:49:27.254Z,764.00
2023-05-22T10:50:27.247Z,761.00
2023-05-22T10:51:27.345Z,761.00
2023-05-22T10:52:27.274Z,763.00
2023-05-22T10:53:27.304Z,759.00
2023-05-22T10:54:27.347Z,758.00
2023-05-22T10:55:27.375Z,758.00
2023-05-22T10:56:27.344Z,759.00
2023-05-22T10:57:28.363Z,764.00
2023-05-22T10:58:27.415Z,762.00
2023-05-22T10:59:27.432Z,760.00
2023-05-22T11:00:27.422Z,760.00
2023-05-22T11:01:27.546Z,761.00
2023-05-22T11:02:27.537Z,760.00
2023-05-22T11:03:27.625Z,758.00
2023-05-22T11:04:27.553Z,761.00
2023-05-22T11:05:27.530Z,762.00
2023-05-22T11:06:27.593Z,762.00
2023-05-22T11:07:27.683Z,761.00
2023-05-22T11:08:27.876Z,760.00
2023-05-22T11:09:27.617Z,757.00
2023-05-22T11:10:27.682Z,756.00
2023-05-22T11:11:27.679Z,755.00
2023-05-22T11:12:27.707Z,754.00
2023-05-22T11:13:29.347Z,753.00
2023-05-22T11:14:27.797Z,753.00
2023-05-22T11:15:27.816Z,754.00
2023-05-22T11:16:27.857Z,753.00
2023-05-22T11:17:28.049Z,751.00
2023-05-22T11:18:28.013Z,751.00
2023-05-22T11:19:28.011Z,753.00
2023-05-22T11:20:27.936Z,752.00
2023-05-22T11:21:28.000Z,763.00
2023-05-22T11:22:28.002Z,765.00
2023-05-22T11:23:28.467Z,762.00
2023-05-22T11:24:28.091Z,761.00
2023-05-22T11:25:28.128Z,762.00
2023-05-22T11:26:28.275Z,759.00
2023-05-22T11:27:28.175Z,757.00
2023-05-22T11:28:28.226Z,757.00
2023-05-22T11:29:28.235Z,757.00
2023-05-22T11:30:28.278Z,756.00
2023-05-22T11:31:28.299Z,754.00
2023-05-22T11:32:28.354Z,753.00
2023-05-22T11:33:28.379Z,749.00
2023-05-22T11:34:28.391Z,751.00
2023-05-22T11:35:28.434Z,748.00
2023-05-22T11:36:28.455Z,748.00
2023-05-22T11:37:28.520Z,744.00
2023-05-22T11:38:28.536Z,744.00
2023-05-22T11:39:28.658Z,743.00
2023-05-22T11:40:28.596Z,743.00
2023-05-22T11:41:28.985Z,741.00
2023-05-22T11:42:28.673Z,736.00
2023-05-22T11:43:28.720Z,736.00
2023-05-22T11:44:28.829Z,735.00
2023-05-22T11:45:28.817Z,735.00
2023-05-22T11:46:28.878Z,733.00
2023-05-22T11:47:28.880Z,732.00
2023-05-22T11:48:28.914Z,730.00
2023-05-22T11:49:28.949Z,727.00
2023-05-22T11:50:41.719Z,724.00
2023-05-22T11:51:29.977Z,724.00
2023-05-22T11:52:28.943Z,725.00
2023-05-22T11:53:28.948Z,721.00
2023-05-22T11:54:28.942Z,723.00
2023-05-22T11:55:28.962Z,723.00
2023-05-22T11:56:28.906Z,722.00
2023-05-22T11:57:28.943Z,725.00
2023-05-22T11:58:28.922Z,724.00
2023-05-22T11:59:28.904Z,726.00
2023-05-22T12:00:28.932Z,722.00
2023-05-22T12:01:28.885Z,717.00
2023-05-22T12:02:28.956Z,717.00
2023-05-22T12:03:28.917Z,713.00
2023-05-22T12:04:28.857Z,711.00
2023-05-22T12:05:28.909Z,710.00
2023-05-22T12:06:28.957Z,710.00
2023-05-22T12:07:28.931Z,710.00
2023-05-22T12:08:28.980Z,709.00
2023-05-22T12:09:29.011Z,709.00
2023-05-22T12:10:29.034Z,708.00
2023-05-22T12:11:29.164Z,706.00
2023-05-22T12:12:29.134Z,704.00
2023-05-22T12:13:29.170Z,702.00
2023-05-22T12:14:29.189Z,702.00
2023-05-22T12:15:29.225Z,703.00
2023-05-22T12:16:29.279Z,701.00
2023-05-22T12:17:29.303Z,703.00
2023-05-22T12:18:29.358Z,704.00
2023-05-22T12:19:29.489Z,700.00
2023-05-22T12:20:29.448Z,697.00
2023-05-22T12:21:29.449Z,696.00
2023-05-22T12:22:29.532Z,695.00
2023-05-22T12:23:29.556Z,697.00